createdAt,value
2022-08-10T00:04:54.234Z,14.81
2022-08-10T00:09:57.317Z,14.86
2022-08-10T00:15:00.803Z,15.30
2022-08-10T00:20:08.743Z,15.92
2022-08-10T00:25:11.951Z,16.34
2022-08-10T00:30:14.801Z,16.63
2022-08-10T00:35:17.637Z,16.76
2022-08-10T00:40:37.216Z,16.60
2022-08-10T00:45:40.896Z,16.50
2022-08-10T00:50:43.800Z,16.54
2022-08-10T00:57:12.823Z,16.49
2022-08-10T01:01:11.003Z,16.39
2022-08-10T01:07:06.166Z,16.46
2022-08-10T01:12:38.517Z,16.61
2022-08-10T01:17:57.284Z,16.81
2022-08-10T01:23:29.081Z,17.08
2022-08-10T01:28:56.193Z,17.36
2022-08-10T01:34:04.110Z,17.59
2022-08-10T01:39:08.095Z,17.79
2022-08-10T01:44:20.018Z,18.06
2022-08-10T01:49:24.264Z,18.33
2022-08-10T01:54:28.028Z,18.52
2022-08-10T01:59:36.061Z,18.84
2022-08-10T02:04:40.568Z,19.01
2022-08-10T02:09:57.322Z,19.03
2022-08-10T02:15:05.282Z,19.09
2022-08-10T02:20:22.872Z,19.36
2022-08-10T02:25:41.951Z,19.64
2022-08-10T02:30:48.425Z,19.85
2022-08-10T02:35:55.317Z,20.15
2022-08-10T02:42:18.359Z,20.61
2022-08-10T02:46:30.394Z,21.16
2022-08-10T02:52:08.658Z,21.76
2022-08-10T02:57:25.284Z,21.98
2022-08-10T03:02:46.435Z,21.85
2022-08-10T03:07:54.955Z,21.75
2022-08-10T03:13:02.739Z,21.72
2022-08-10T03:18:06.299Z,21.73
2022-08-10T03:23:15.196Z,21.56
2022-08-10T03:28:20.676Z,21.31
2022-08-10T03:33:27.886Z,21.24
2022-08-10T03:38:30.783Z,21.12
2022-08-10T03:43:34.446Z,21.12
2022-08-10T03:48:49.047Z,21.29
2022-08-10T03:54:05.734Z,21.43
2022-08-10T03:59:12.880Z,21.84
2022-08-10T04:04:22.487Z,22.34
2022-08-10T04:09:53.491Z,22.65
2022-08-10T04:14:54.698Z,22.76
2022-08-10T04:19:58.522Z,22.74
2022-08-10T04:25:05.187Z,23.10
2022-08-10T04:30:08.991Z,23.42
2022-08-10T04:35:12.207Z,23.76
2022-08-10T04:40:28.424Z,24.18
2022-08-10T04:45:49.283Z,24.17
2022-08-10T04:50:54.844Z,23.89
2022-08-10T04:55:57.634Z,23.71
2022-08-10T05:01:00.477Z,23.89
2022-08-10T05:06:03.494Z,23.94
2022-08-10T05:11:06.334Z,24.70
2022-08-10T05:16:09.096Z,25.23
2022-08-10T05:21:52.121Z,25.81
2022-08-10T05:27:00.320Z,26.17
2022-08-10T05:32:09.463Z,26.05
2022-08-10T05:38:09.628Z,25.64
2022-08-10T05:42:35.932Z,25.21
2022-08-10T05:48:54.646Z,24.84
2022-08-10T05:53:59.403Z,25.05
2022-08-10T05:58:25.757Z,25.16
2022-08-10T06:03:34.946Z,24.52
2022-08-10T06:08:39.764Z,24.21
2022-08-10T06:14:13.100Z,24.27
2022-08-10T06:19:19.618Z,24.74
2022-08-10T06:24:25.327Z,25.29
2022-08-10T06:29:33.742Z,25.16
2022-08-10T06:34:40.142Z,25.19
2022-08-10T06:39:43.511Z,25.66
2022-08-10T06:44:56.345Z,25.50
2022-08-10T06:50:04.960Z,24.64
2022-08-10T06:55:16.634Z,24.16
2022-08-10T07:00:21.878Z,24.50
2022-08-10T07:05:27.001Z,24.65
2022-08-10T07:10:45.581Z,24.57
2022-08-10T07:15:59.517Z,24.73
2022-08-10T07:21:04.866Z,24.88
2022-08-10T07:26:10.226Z,24.86
2022-08-10T07:31:54.958Z,24.81
2022-08-10T07:36:40.045Z,24.90
2022-08-10T07:41:43.240Z,25.08
2022-08-10T07:46:47.996Z,25.07
2022-08-10T07:51:54.443Z,25.14
2022-08-10T07:57:02.509Z,25.36
2022-08-10T08:02:07.084Z,25.48
2022-08-10T08:07:09.861Z,25.49
2022-08-10T08:12:13.702Z,25.65
2022-08-10T08:17:17.243Z,26.09
2022-08-10T08:24:05.291Z,26.94
2022-08-10T08:27:47.901Z,27.13
2022-08-10T08:33:00.238Z,26.84
2022-08-10T08:38:32.361Z,26.33
2022-08-10T08:43:58.823Z,25.67
2022-08-10T08:49:09.530Z,25.61
2022-08-10T08:54:15.299Z,25.97
2022-08-10T08:59:51.541Z,26.23
2022-08-10T09:05:00.362Z,26.82
2022-08-10T09:10:27.762Z,27.02
2022-08-10T09:15:57.423Z,26.62
2022-08-10T09:21:55.071Z,26.51
2022-08-10T09:27:13.729Z,27.11
2022-08-10T09:36:16.275Z,27.59
2022-08-10T09:38:01.135Z,27.77
2022-08-10T09:43:25.190Z,27.64
2022-08-10T09:48:42.248Z,27.15
2022-08-10T09:53:54.602Z,26.54
2022-08-10T10:00:00.733Z,26.33
2022-08-10T10:05:16.726Z,26.50
2022-08-10T10:10:47.894Z,26.75
2022-08-10T10:16:03.944Z,27.22
2022-08-10T10:21:51.346Z,27.57
2022-08-10T10:27:24.244Z,27.38
2022-08-10T10:32:38.974Z,26.74
2022-08-10T10:38:01.275Z,26.50
2022-08-10T10:43:29.288Z,26.46
2022-08-10T10:48:53.670Z,26.41
2022-08-10T10:54:03.446Z,26.40
2022-08-10T10:59:56.230Z,26.33
2022-08-10T11:05:16.440Z,26.44
2022-08-10T11:10:33.405Z,26.43
2022-08-10T11:15:42.833Z,26.43
2022-08-10T11:21:16.940Z,26.38
2022-08-10T11:26:26.742Z,26.43
2022-08-10T11:31:36.249Z,26.40
2022-08-10T11:36:41.770Z,26.31
2022-08-10T11:42:08.884Z,26.22
2022-08-10T11:47:18.317Z,26.09
2022-08-10T11:52:29.510Z,26.11
2022-08-10T11:57:53.069Z,26.11
2022-08-10T12:03:02.530Z,26.14
2022-08-10T12:10:04.847Z,26.11
2022-08-10T12:14:04.287Z,26.01
2022-08-10T12:19:24.856Z,26.28
2022-08-10T12:24:46.986Z,26.16
2022-08-10T12:29:55.883Z,26.06
2022-08-10T12:35:22.074Z,26.02
2022-08-10T12:40:35.706Z,25.95
2022-08-10T12:45:52.036Z,25.98
2022-08-10T12:51:15.322Z,26.95
2022-08-10T12:56:30.037Z,26.64
2022-08-10T13:02:06.919Z,26.12
2022-08-10T13:06:59.017Z,25.68
2022-08-10T13:12:36.017Z,25.48
2022-08-10T13:17:46.853Z,25.98
2022-08-10T13:22:59.708Z,27.38
2022-08-10T13:28:37.854Z,28.03
2022-08-10T13:34:41.246Z,28.13
2022-08-10T13:38:59.193Z,27.14
2022-08-10T13:44:02.186Z,25.57
2022-08-10T13:49:06.309Z,24.69
2022-08-10T13:54:17.940Z,24.10
2022-08-10T13:59:22.415Z,23.67
2022-08-10T14:04:25.419Z,23.35
2022-08-10T14:09:31.838Z,23.02
2022-08-10T14:14:34.883Z,22.78
2022-08-10T14:19:43.752Z,22.50
2022-08-10T14:24:47.065Z,22.19
2022-08-10T14:29:55.464Z,21.88
2022-08-10T14:36:21.109Z,21.55
2022-08-10T14:40:26.053Z,21.31
2022-08-10T14:45:33.894Z,21.04
2022-08-10T14:50:55.609Z,20.93
2022-08-10T14:56:03.171Z,20.71
2022-08-10T15:01:07.460Z,20.52
2022-08-10T15:06:17.933Z,20.38
2022-08-10T15:12:12.337Z,20.28
2022-08-10T15:16:44.581Z,20.14
2022-08-10T15:21:47.527Z,20.06
2022-08-10T15:27:09.632Z,19.91
2022-08-10T15:32:37.407Z,19.74
2022-08-10T15:37:41.619Z,19.61
2022-08-10T15:42:58.385Z,19.52
2022-08-10T15:48:04.768Z,19.38
2022-08-10T15:53:17.077Z,19.32
2022-08-10T15:58:37.582Z,19.22
2022-08-10T16:03:54.680Z,19.16
2022-08-10T16:10:10.792Z,19.22
2022-08-10T16:14:36.646Z,19.28
2022-08-10T16:19:49.487Z,19.38
2022-08-10T16:24:52.473Z,19.31
2022-08-10T16:30:00.974Z,19.14
2022-08-10T16:35:09.845Z,19.09
2022-08-10T16:40:13.871Z,19.02
2022-08-10T16:45:25.003Z,18.90
2022-08-10T16:50:42.002Z,18.74
2022-08-10T16:55:50.969Z,18.60
2022-08-10T17:00:59.766Z,18.46
2022-08-10T17:06:10.844Z,18.34
2022-08-10T17:11:15.815Z,18.21
2022-08-10T17:16:18.636Z,18.17
2022-08-10T17:21:23.503Z,18.05
2022-08-10T17:26:37.011Z,17.99
2022-08-10T17:31:54.828Z,17.92
2022-08-10T17:37:02.729Z,17.91
2022-08-10T17:42:06.105Z,18.01
2022-08-10T17:47:11.281Z,17.92
2022-08-10T17:52:16.951Z,17.77
2022-08-10T17:57:21.564Z,17.72
2022-08-10T18:02:28.422Z,17.67
2022-08-10T18:07:35.803Z,17.63
2022-08-10T18:12:48.398Z,17.52
2022-08-10T18:17:59.079Z,17.43
2022-08-10T18:23:04.022Z,17.30
2022-08-10T18:28:12.133Z,17.33
2022-08-10T18:33:16.356Z,17.24
2022-08-10T18:38:19.734Z,17.17
2022-08-10T18:44:05.546Z,17.03
2022-08-10T18:48:57.031Z,16.94
2022-08-10T18:54:05.690Z,16.88
2022-08-10T18:59:39.239Z,16.86
2022-08-10T19:05:30.137Z,16.83
2022-08-10T19:11:01.528Z,16.79
2022-08-10T19:16:15.098Z,16.69
2022-08-10T19:21:40.237Z,16.66
2022-08-10T19:27:04.488Z,16.59
2022-08-10T19:32:18.678Z,16.52
2022-08-10T19:38:00.743Z,16.46
2022-08-10T19:44:00.680Z,16.45
2022-08-10T19:48:54.052Z,16.41
2022-08-10T19:54:02.986Z,16.37
2022-08-10T19:59:11.346Z,16.32
2022-08-10T20:04:20.398Z,16.19
2022-08-10T20:09:35.034Z,16.22
2022-08-10T20:14:53.342Z,16.15
2022-08-10T20:19:59.409Z,16.10
2022-08-10T20:25:14.010Z,16.00
2022-08-10T20:30:17.605Z,15.88
2022-08-10T20:35:49.128Z,15.91
2022-08-10T20:41:27.505Z,15.89
2022-08-10T20:46:34.507Z,15.78
2022-08-10T20:52:00.463Z,15.63
2022-08-10T20:57:54.829Z,15.53
2022-08-10T21:03:21.015Z,15.47
2022-08-10T21:08:49.324Z,15.40
2022-08-10T21:14:19.162Z,15.31
2022-08-10T21:19:55.596Z,15.32
2022-08-10T21:25:04.050Z,15.33
2022-08-10T21:30:16.633Z,15.31
2022-08-10T21:35:41.866Z,15.26
2022-08-10T21:41:18.142Z,15.29
2022-08-10T21:47:04.770Z,15.22
2022-08-10T21:52:36.940Z,15.13
2022-08-10T21:58:06.705Z,15.09
2022-08-10T22:03:39.411Z,15.06
2022-08-10T22:09:04.309Z,14.97
2022-08-10T22:14:33.773Z,15.02
2022-08-10T22:20:03.077Z,14.98
2022-08-10T22:25:52.075Z,14.91
2022-08-10T22:37:12.653Z,14.78
2022-08-10T22:42:57.968Z,14.82
2022-08-10T22:48:23.873Z,14.90
2022-08-10T22:53:56.493Z,14.97
2022-08-10T22:58:59.240Z,15.06
2022-08-10T23:04:08.972Z,15.06
2022-08-10T23:09:14.754Z,15.09
2022-08-10T23:14:18.962Z,15.16
2022-08-10T23:19:26.288Z,15.08
2022-08-10T23:24:39.125Z,15.37
2022-08-10T23:30:09.873Z,15.51
2022-08-10T23:36:31.736Z,15.65
2022-08-10T23:40:36.806Z,15.82
2022-08-10T23:45:53.756Z,16.08
2022-08-10T23:51:02.728Z,16.48
2022-08-10T23:56:09.788Z,16.93
